Vestal Gardens, New York
Current Conditions -  °F | °C
As of 8:53 AM on Tuesday 27 Jan 2015 (Local Time) from KBGM Reporting Station
Clear Clear  
Wind Chill: -1°   Ceiling: Unl
Heat Index: 13°   Visibility: 10mi
Dew Point:   Wind: 12mph
Humidity: 74%   Direction: 320°NW
Pressure: 29.75"   Gusts: NA
Location:  42.0463°N, 76.0314°W
Report Text: KBGM 271353Z 32010KT 10SM CLR M11/M14 A2975 RMK AO2 SLP104 T11061144
Loading
Personal Weather Stations






























Interactive Weather Map New forecast layout! Learn more

10-Day Weather Forecast

Advertisements
Track Severe Weather on mobile